sensor_id;sensor_type;location;lat;lon;timestamp;P1;durP1;ratioP1;P2;durP2;ratioP2
21804;SDS011;11064;47.102;15.452;2023-12-04T05:02:41;13.70;;;7.40;;
21804;SDS011;11064;47.102;15.452;2023-12-04T05:05:07;13.95;;;7.57;;
21804;SDS011;11064;47.102;15.452;2023-12-04T05:07:33;15.30;;;7.18;;
21804;SDS011;11064;47.102;15.452;2023-12-04T05:09:59;15.40;;;7.78;;
21804;SDS011;11064;47.102;15.452;2023-12-04T05:12:25;12.82;;;7.32;;
21804;SDS011;11064;47.102;15.452;2023-12-04T05:14:50;14.95;;;6.90;;
21804;SDS011;11064;47.102;15.452;2023-12-04T05:17:16;14.40;;;6.82;;
21804;SDS011;11064;47.102;15.452;2023-12-04T05:19:42;13.20;;;6.97;;
21804;SDS011;11064;47.102;15.452;2023-12-04T05:22:08;15.85;;;7.90;;
21804;SDS011;11064;47.102;15.452;2023-12-04T05:24:34;14.48;;;7.45;;
21804;SDS011;11064;47.102;15.452;2023-12-04T05:27:01;14.63;;;7.47;;
21804;SDS011;11064;47.102;15.452;2023-12-04T05:29:27;13.60;;;7.57;;
21804;SDS011;11064;47.102;15.452;2023-12-04T05:31:53;17.08;;;8.02;;
21804;SDS011;11064;47.102;15.452;2023-12-04T05:34:20;13.05;;;7.63;;
21804;SDS011;11064;47.102;15.452;2023-12-04T05:36:45;15.93;;;8.57;;
21804;SDS011;11064;47.102;15.452;2023-12-04T05:39:11;13.65;;;7.80;;
21804;SDS011;11064;47.102;15.452;2023-12-04T05:41:37;13.90;;;7.53;;
21804;SDS011;11064;47.102;15.452;2023-12-04T05:44:03;13.30;;;6.75;;
21804;SDS011;11064;47.102;15.452;2023-12-04T05:46:29;13.98;;;7.32;;
21804;SDS011;11064;47.102;15.452;2023-12-04T05:48:55;12.63;;;7.43;;
21804;SDS011;11064;47.102;15.452;2023-12-04T05:51:20;13.55;;;7.68;;
21804;SDS011;11064;47.102;15.452;2023-12-04T05:53:47;14.55;;;7.13;;
21804;SDS011;11064;47.102;15.452;2023-12-04T05:56:13;12.75;;;6.82;;
21804;SDS011;11064;47.102;15.452;2023-12-04T05:58:39;12.23;;;7.03;;
21804;SDS011;11064;47.102;15.452;2023-12-04T06:01:05;15.10;;;6.82;;
21804;SDS011;11064;47.102;15.452;2023-12-04T06:03:32;12.48;;;7.13;;
21804;SDS011;11064;47.102;15.452;2023-12-04T06:05:58;17.50;;;7.90;;
21804;SDS011;11064;47.102;15.452;2023-12-04T06:08:23;13.20;;;6.88;;
21804;SDS011;11064;47.102;15.452;2023-12-04T06:10:49;13.70;;;7.43;;
21804;SDS011;11064;47.102;15.452;2023-12-04T06:13:15;13.65;;;7.38;;
21804;SDS011;11064;47.102;15.452;2023-12-04T06:15:41;12.23;;;7.18;;
21804;SDS011;11064;47.102;15.452;2023-12-04T06:18:07;12.38;;;6.97;;
21804;SDS011;11064;47.102;15.452;2023-12-04T06:20:33;13.32;;;6.90;;
21804;SDS011;11064;47.102;15.452;2023-12-04T06:22:59;13.63;;;7.75;;
21804;SDS011;11064;47.102;15.452;2023-12-04T06:25:25;12.27;;;6.75;;
21804;SDS011;11064;47.102;15.452;2023-12-04T06:27:51;14.23;;;6.68;;
21804;SDS011;11064;47.102;15.452;2023-12-04T06:30:17;12.98;;;7.35;;
21804;SDS011;11064;47.102;15.452;2023-12-04T06:32:43;12.23;;;6.90;;
21804;SDS011;11064;47.102;15.452;2023-12-04T06:35:10;11.68;;;6.72;;
21804;SDS011;11064;47.102;15.452;2023-12-04T06:37:37;13.93;;;7.20;;
21804;SDS011;11064;47.102;15.452;2023-12-04T06:40:05;11.68;;;6.95;;
21804;SDS011;11064;47.102;15.452;2023-12-04T06:42:34;13.07;;;6.97;;
21804;SDS011;11064;47.102;15.452;2023-12-04T06:45:01;12.70;;;6.88;;
21804;SDS011;11064;47.102;15.452;2023-12-04T06:47:27;14.27;;;7.30;;
21804;SDS011;11064;47.102;15.452;2023-12-04T06:49:56;11.90;;;7.15;;
21804;SDS011;11064;47.102;15.452;2023-12-04T06:52:22;11.45;;;6.68;;
21804;SDS011;11064;47.102;15.452;2023-12-04T06:54:48;12.27;;;6.50;;
21804;SDS011;11064;47.102;15.452;2023-12-04T06:57:14;14.98;;;7.60;;
21804;SDS011;11064;47.102;15.452;2023-12-04T06:59:43;16.55;;;7.55;;
21804;SDS011;11064;47.102;15.452;2023-12-04T07:02:09;13.82;;;7.32;;
21804;SDS011;11064;47.102;15.452;2023-12-04T07:04:35;12.93;;;6.93;;
21804;SDS011;11064;47.102;15.452;2023-12-04T07:07:02;12.40;;;7.10;;
21804;SDS011;11064;47.102;15.452;2023-12-04T07:09:33;12.35;;;6.70;;
21804;SDS011;11064;47.102;15.452;2023-12-04T07:11:59;12.82;;;6.47;;
21804;SDS011;11064;47.102;15.452;2023-12-04T07:14:27;13.32;;;7.05;;
21804;SDS011;11064;47.102;15.452;2023-12-04T07:16:53;11.80;;;7.00;;
21804;SDS011;11064;47.102;15.452;2023-12-04T07:19:19;13.10;;;6.97;;
21804;SDS011;11064;47.102;15.452;2023-12-04T07:21:46;13.98;;;7.30;;
21804;SDS011;11064;47.102;15.452;2023-12-04T07:24:13;15.45;;;7.03;;
21804;SDS011;11064;47.102;15.452;2023-12-04T07:26:38;12.57;;;6.50;;
21804;SDS011;11064;47.102;15.452;2023-12-04T07:29:04;14.35;;;6.82;;
21804;SDS011;11064;47.102;15.452;2023-12-04T07:31:30;13.55;;;7.60;;
21804;SDS011;11064;47.102;15.452;2023-12-04T07:33:56;12.57;;;7.10;;
21804;SDS011;11064;47.102;15.452;2023-12-04T07:36:22;14.23;;;7.13;;
21804;SDS011;11064;47.102;15.452;2023-12-04T07:38:49;12.35;;;6.80;;
21804;SDS011;11064;47.102;15.452;2023-12-04T07:41:17;12.95;;;7.20;;
21804;SDS011;11064;47.102;15.452;2023-12-04T07:43:43;13.38;;;7.10;;
21804;SDS011;11064;47.102;15.452;2023-12-04T07:46:09;14.82;;;7.13;;
21804;SDS011;11064;47.102;15.452;2023-12-04T07:48:36;13.18;;;6.85;;
21804;SDS011;11064;47.102;15.452;2023-12-04T07:51:03;14.48;;;7.18;;
21804;SDS011;11064;47.102;15.452;2023-12-04T07:53:29;13.13;;;7.15;;
21804;SDS011;11064;47.102;15.452;2023-12-04T07:55:55;15.65;;;7.22;;
21804;SDS011;11064;47.102;15.452;2023-12-04T07:58:21;13.57;;;7.13;;
21804;SDS011;11064;47.102;15.452;2023-12-04T08:00:47;13.85;;;7.38;;
21804;SDS011;11064;47.102;15.452;2023-12-04T08:03:13;13.75;;;6.57;;
21804;SDS011;11064;47.102;15.452;2023-12-04T08:05:39;13.77;;;7.13;;
21804;SDS011;11064;47.102;15.452;2023-12-04T08:08:05;14.50;;;6.93;;
21804;SDS011;11064;47.102;15.452;2023-12-04T08:10:31;12.32;;;6.97;;
21804;SDS011;11064;47.102;15.452;2023-12-04T08:12:57;16.83;;;7.40;;
21804;SDS011;11064;47.102;15.452;2023-12-04T08:15:23;13.50;;;6.95;;
21804;SDS011;11064;47.102;15.452;2023-12-04T08:17:49;14.05;;;7.32;;
21804;SDS011;11064;47.102;15.452;2023-12-04T08:20:15;12.88;;;7.28;;
21804;SDS011;11064;47.102;15.452;2023-12-04T08:22:41;13.98;;;7.22;;
21804;SDS011;11064;47.102;15.452;2023-12-04T08:25:10;13.73;;;6.93;;
21804;SDS011;11064;47.102;15.452;2023-12-04T08:27:36;11.43;;;7.07;;
21804;SDS011;11064;47.102;15.452;2023-12-04T08:30:03;13.52;;;7.13;;
21804;SDS011;11064;47.102;15.452;2023-12-04T08:32:30;10.48;;;6.45;;
21804;SDS011;11064;47.102;15.452;2023-12-04T08:34:56;13.50;;;7.25;;
21804;SDS011;11064;47.102;15.452;2023-12-04T08:37:22;12.68;;;7.05;;
21804;SDS011;11064;47.102;15.452;2023-12-04T08:39:48;12.65;;;7.65;;
21804;SDS011;11064;47.102;15.452;2023-12-04T08:42:14;13.95;;;6.75;;
21804;SDS011;11064;47.102;15.452;2023-12-04T08:44:40;12.57;;;6.72;;
21804;SDS011;11064;47.102;15.452;2023-12-04T08:47:05;10.73;;;6.32;;
21804;SDS011;11064;47.102;15.452;2023-12-04T08:49:31;13.43;;;7.35;;
21804;SDS011;11064;47.102;15.452;2023-12-04T08:51:59;12.43;;;7.07;;
21804;SDS011;11064;47.102;15.452;2023-12-04T08:54:25;13.73;;;7.25;;
21804;SDS011;11064;47.102;15.452;2023-12-04T08:56:50;13.50;;;7.10;;
21804;SDS011;11064;47.102;15.452;2023-12-04T08:59:16;12.40;;;7.22;;
21804;SDS011;11064;47.102;15.452;2023-12-04T09:01:42;13.07;;;7.40;;
21804;SDS011;11064;47.102;15.452;2023-12-04T09:04:08;14.38;;;7.72;;
21804;SDS011;11064;47.102;15.452;2023-12-04T09:06:34;15.57;;;7.43;;
21804;SDS011;11064;47.102;15.452;2023-12-04T09:09:01;15.05;;;8.43;;
21804;SDS011;11064;47.102;15.452;2023-12-04T09:11:27;16.48;;;8.50;;
21804;SDS011;11064;47.102;15.452;2023-12-04T09:13:54;17.77;;;8.93;;
21804;SDS011;11064;47.102;15.452;2023-12-04T09:16:19;16.35;;;8.75;;
21804;SDS011;11064;47.102;15.452;2023-12-04T09:18:45;13.68;;;8.40;;
21804;SDS011;11064;47.102;15.452;2023-12-04T09:21:11;15.15;;;8.57;;
21804;SDS011;11064;47.102;15.452;2023-12-04T09:23:37;15.45;;;8.38;;
21804;SDS011;11064;47.102;15.452;2023-12-04T09:26:03;16.20;;;8.65;;
21804;SDS011;11064;47.102;15.452;2023-12-04T09:28:29;16.23;;;7.90;;
21804;SDS011;11064;47.102;15.452;2023-12-04T09:30:55;15.63;;;8.68;;
21804;SDS011;11064;47.102;15.452;2023-12-04T09:33:21;15.27;;;8.23;;
21804;SDS011;11064;47.102;15.452;2023-12-04T09:35:46;14.75;;;8.57;;
21804;SDS011;11064;47.102;15.452;2023-12-04T09:38:12;15.70;;;8.40;;
21804;SDS011;11064;47.102;15.452;2023-12-04T09:40:38;15.02;;;8.10;;
21804;SDS011;11064;47.102;15.452;2023-12-04T09:43:05;13.82;;;8.35;;
21804;SDS011;11064;47.102;15.452;2023-12-04T09:45:32;12.75;;;7.10;;
21804;SDS011;11064;47.102;15.452;2023-12-04T09:47:58;16.63;;;8.93;;
21804;SDS011;11064;47.102;15.452;2023-12-04T09:50:25;13.45;;;7.55;;
21804;SDS011;11064;47.102;15.452;2023-12-04T09:52:51;14.48;;;7.70;;
21804;SDS011;11064;47.102;15.452;2023-12-04T09:55:18;15.40;;;7.93;;
21804;SDS011;11064;47.102;15.452;2023-12-04T09:57:44;13.88;;;7.70;;
21804;SDS011;11064;47.102;15.452;2023-12-04T10:00:11;15.30;;;7.88;;
21804;SDS011;11064;47.102;15.452;2023-12-04T10:02:39;14.98;;;7.93;;
21804;SDS011;11064;47.102;15.452;2023-12-04T10:05:09;17.00;;;8.18;;
21804;SDS011;11064;47.102;15.452;2023-12-04T10:07:35;14.10;;;7.82;;
21804;SDS011;11064;47.102;15.452;2023-12-04T10:10:04;13.95;;;8.30;;
21804;SDS011;11064;47.102;15.452;2023-12-04T10:12:31;12.90;;;7.32;;
21804;SDS011;11064;47.102;15.452;2023-12-04T10:15:06;16.73;;;8.40;;
21804;SDS011;11064;47.102;15.452;2023-12-04T10:17:34;12.73;;;7.75;;
21804;SDS011;11064;47.102;15.452;2023-12-04T10:22:37;12.85;;;7.45;;
21804;SDS011;11064;47.102;15.452;2023-12-04T10:25:18;13.88;;;7.68;;
21804;SDS011;11064;47.102;15.452;2023-12-04T10:27:44;12.45;;;7.72;;
21804;SDS011;11064;47.102;15.452;2023-12-04T10:30:32;13.98;;;7.63;;
21804;SDS011;11064;47.102;15.452;2023-12-04T10:32:57;13.13;;;8.13;;
21804;SDS011;11064;47.102;15.452;2023-12-04T10:35:27;13.02;;;8.10;;
21804;SDS011;11064;47.102;15.452;2023-12-04T10:37:55;15.70;;;7.80;;
21804;SDS011;11064;47.102;15.452;2023-12-04T10:42:52;18.43;;;7.77;;
21804;SDS011;11064;47.102;15.452;2023-12-04T10:45:45;12.90;;;7.82;;
21804;SDS011;11064;47.102;15.452;2023-12-04T10:48:14;14.95;;;8.45;;
21804;SDS011;11064;47.102;15.452;2023-12-04T10:50:45;15.55;;;7.97;;
21804;SDS011;11064;47.102;15.452;2023-12-04T10:53:16;12.75;;;7.75;;
21804;SDS011;11064;47.102;15.452;2023-12-04T10:55:42;13.65;;;7.65;;
21804;SDS011;11064;47.102;15.452;2023-12-04T10:58:10;12.57;;;7.47;;
21804;SDS011;11064;47.102;15.452;2023-12-04T11:00:42;12.52;;;7.30;;
21804;SDS011;11064;47.102;15.452;2023-12-04T11:03:13;12.43;;;6.93;;
21804;SDS011;11064;47.102;15.452;2023-12-04T11:05:45;10.95;;;6.70;;
21804;SDS011;11064;47.102;15.452;2023-12-04T11:08:16;10.77;;;6.63;;
21804;SDS011;11064;47.102;15.452;2023-12-04T11:10:46;11.75;;;6.32;;
21804;SDS011;11064;47.102;15.452;2023-12-04T11:13:37;10.35;;;6.22;;
21804;SDS011;11064;47.102;15.452;2023-12-04T11:18:37;10.35;;;6.45;;
21804;SDS011;11064;47.102;15.452;2023-12-04T11:21:08;12.20;;;6.07;;
21804;SDS011;11064;47.102;15.452;2023-12-04T11:23:35;9.55;;;6.47;;
21804;SDS011;11064;47.102;15.452;2023-12-04T11:26:03;9.15;;;6.15;;
21804;SDS011;11064;47.102;15.452;2023-12-04T11:28:30;10.75;;;6.47;;
21804;SDS011;11064;47.102;15.452;2023-12-04T11:30:58;12.73;;;6.97;;
21804;SDS011;11064;47.102;15.452;2023-12-04T11:33:26;16.77;;;9.13;;
21804;SDS011;11064;47.102;15.452;2023-12-04T11:35:52;12.27;;;7.85;;
21804;SDS011;11064;47.102;15.452;2023-12-04T11:38:18;11.75;;;7.38;;
21804;SDS011;11064;47.102;15.452;2023-12-04T11:40:45;12.35;;;7.03;;
21804;SDS011;11064;47.102;15.452;2023-12-04T11:43:27;22.25;;;11.20;;
21804;SDS011;11064;47.102;15.452;2023-12-04T11:46:09;20.52;;;11.23;;
21804;SDS011;11064;47.102;15.452;2023-12-04T11:48:38;18.48;;;10.80;;
21804;SDS011;11064;47.102;15.452;2023-12-04T11:51:07;16.83;;;10.82;;
21804;SDS011;11064;47.102;15.452;2023-12-04T11:53:40;16.45;;;10.55;;
21804;SDS011;11064;47.102;15.452;2023-12-04T11:56:11;18.50;;;10.75;;
21804;SDS011;11064;47.102;15.452;2023-12-04T11:58:44;18.85;;;10.90;;
21804;SDS011;11064;47.102;15.452;2023-12-04T12:01:10;16.00;;;9.88;;
21804;SDS011;11064;47.102;15.452;2023-12-04T12:03:36;18.08;;;10.65;;
21804;SDS011;11064;47.102;15.452;2023-12-04T12:06:03;18.60;;;10.55;;
21804;SDS011;11064;47.102;15.452;2023-12-04T12:08:29;17.42;;;10.27;;
21804;SDS011;11064;47.102;15.452;2023-12-04T12:10:55;14.75;;;9.07;;
21804;SDS011;11064;47.102;15.452;2023-12-04T12:13:23;14.23;;;9.35;;
21804;SDS011;11064;47.102;15.452;2023-12-04T12:15:51;15.77;;;9.70;;
21804;SDS011;11064;47.102;15.452;2023-12-04T12:18:17;15.18;;;8.82;;
21804;SDS011;11064;47.102;15.452;2023-12-04T12:20:43;17.92;;;9.52;;
21804;SDS011;11064;47.102;15.452;2023-12-04T12:23:09;14.00;;;8.80;;
21804;SDS011;11064;47.102;15.452;2023-12-04T12:25:35;12.73;;;8.07;;
21804;SDS011;11064;47.102;15.452;2023-12-04T12:28:02;12.98;;;8.70;;
21804;SDS011;11064;47.102;15.452;2023-12-04T12:30:28;15.38;;;8.85;;
21804;SDS011;11064;47.102;15.452;2023-12-04T12:32:54;18.23;;;9.13;;
21804;SDS011;11064;47.102;15.452;2023-12-04T12:35:20;14.48;;;8.70;;
21804;SDS011;11064;47.102;15.452;2023-12-04T12:37:46;13.15;;;8.73;;
21804;SDS011;11064;47.102;15.452;2023-12-04T12:40:12;13.95;;;8.88;;
21804;SDS011;11064;47.102;15.452;2023-12-04T12:42:38;12.68;;;8.32;;
21804;SDS011;11064;47.102;15.452;2023-12-04T12:45:07;13.20;;;8.60;;
21804;SDS011;11064;47.102;15.452;2023-12-04T12:47:36;13.85;;;8.63;;
21804;SDS011;11064;47.102;15.452;2023-12-04T12:50:03;14.48;;;8.38;;
21804;SDS011;11064;47.102;15.452;2023-12-04T12:52:32;16.48;;;9.15;;
21804;SDS011;11064;47.102;15.452;2023-12-04T12:54:59;17.08;;;8.57;;
21804;SDS011;11064;47.102;15.452;2023-12-04T12:57:24;13.70;;;8.00;;
21804;SDS011;11064;47.102;15.452;2023-12-04T12:59:52;12.73;;;8.13;;
21804;SDS011;11064;47.102;15.452;2023-12-04T13:02:18;14.07;;;8.48;;
21804;SDS011;11064;47.102;15.452;2023-12-04T13:04:46;12.38;;;8.02;;
21804;SDS011;11064;47.102;15.452;2023-12-04T13:07:12;12.18;;;7.72;;
21804;SDS011;11064;47.102;15.452;2023-12-04T13:09:38;15.40;;;8.18;;
21804;SDS011;11064;47.102;15.452;2023-12-04T13:12:05;10.85;;;7.43;;
21804;SDS011;11064;47.102;15.452;2023-12-04T13:14:33;14.88;;;7.70;;
21804;SDS011;11064;47.102;15.452;2023-12-04T13:17:00;13.57;;;7.60;;
21804;SDS011;11064;47.102;15.452;2023-12-04T13:19:26;14.13;;;8.20;;
21804;SDS011;11064;47.102;15.452;2023-12-04T13:21:52;11.65;;;8.18;;
21804;SDS011;11064;47.102;15.452;2023-12-04T13:24:18;14.27;;;8.60;;
21804;SDS011;11064;47.102;15.452;2023-12-04T13:26:44;14.45;;;8.30;;
21804;SDS011;11064;47.102;15.452;2023-12-04T13:29:11;12.43;;;8.20;;
21804;SDS011;11064;47.102;15.452;2023-12-04T13:31:41;13.90;;;8.50;;
21804;SDS011;11064;47.102;15.452;2023-12-04T13:34:07;11.63;;;7.97;;
21804;SDS011;11064;47.102;15.452;2023-12-04T13:36:34;12.65;;;7.82;;
21804;SDS011;11064;47.102;15.452;2023-12-04T13:39:01;12.63;;;7.95;;
21804;SDS011;11064;47.102;15.452;2023-12-04T13:41:29;12.70;;;7.80;;
21804;SDS011;11064;47.102;15.452;2023-12-04T13:44:15;12.82;;;8.13;;
21804;SDS011;11064;47.102;15.452;2023-12-04T13:46:41;12.30;;;7.63;;
21804;SDS011;11064;47.102;15.452;2023-12-04T13:49:06;13.73;;;8.43;;
21804;SDS011;11064;47.102;15.452;2023-12-04T13:51:32;15.05;;;8.20;;
21804;SDS011;11064;47.102;15.452;2023-12-04T13:54:00;14.00;;;7.75;;
21804;SDS011;11064;47.102;15.452;2023-12-04T13:56:40;13.57;;;8.57;;
21804;SDS011;11064;47.102;15.452;2023-12-04T13:59:22;18.67;;;8.32;;
21804;SDS011;11064;47.102;15.452;2023-12-04T14:01:49;14.10;;;8.70;;
21804;SDS011;11064;47.102;15.452;2023-12-04T14:04:16;13.25;;;7.82;;
21804;SDS011;11064;47.102;15.452;2023-12-04T14:06:43;14.55;;;8.15;;
21804;SDS011;11064;47.102;15.452;2023-12-04T14:09:09;11.75;;;7.82;;
21804;SDS011;11064;47.102;15.452;2023-12-04T14:11:39;12.30;;;7.80;;
21804;SDS011;11064;47.102;15.452;2023-12-04T14:14:08;11.90;;;7.40;;
21804;SDS011;11064;47.102;15.452;2023-12-04T14:16:34;14.00;;;8.15;;
21804;SDS011;11064;47.102;15.452;2023-12-04T14:18:59;13.82;;;8.23;;
21804;SDS011;11064;47.102;15.452;2023-12-04T14:21:25;18.55;;;8.20;;
21804;SDS011;11064;47.102;15.452;2023-12-04T14:23:52;14.70;;;9.10;;
21804;SDS011;11064;47.102;15.452;2023-12-04T14:26:18;18.02;;;10.38;;
21804;SDS011;11064;47.102;15.452;2023-12-04T14:28:44;23.33;;;13.05;;
21804;SDS011;11064;47.102;15.452;2023-12-04T14:31:09;42.47;;;21.63;;
21804;SDS011;11064;47.102;15.452;2023-12-04T14:33:36;40.13;;;19.77;;
21804;SDS011;11064;47.102;15.452;2023-12-04T14:36:03;34.67;;;16.95;;
21804;SDS011;11064;47.102;15.452;2023-12-04T14:38:29;37.08;;;18.33;;
21804;SDS011;11064;47.102;15.452;2023-12-04T14:40:55;25.20;;;13.10;;
21804;SDS011;11064;47.102;15.452;2023-12-04T14:43:21;16.77;;;9.95;;
21804;SDS011;11064;47.102;15.452;2023-12-04T14:45:46;20.65;;;10.27;;
21804;SDS011;11064;47.102;15.452;2023-12-04T14:48:12;23.45;;;12.77;;
21804;SDS011;11064;47.102;15.452;2023-12-04T14:50:39;25.30;;;13.88;;
21804;SDS011;11064;47.102;15.452;2023-12-04T14:53:05;21.00;;;12.88;;
21804;SDS011;11064;47.102;15.452;2023-12-04T14:55:42;19.50;;;11.57;;
21804;SDS011;11064;47.102;15.452;2023-12-04T14:58:27;17.10;;;9.18;;
21804;SDS011;11064;47.102;15.452;2023-12-04T15:01:08;14.35;;;8.45;;
21804;SDS011;11064;47.102;15.452;2023-12-04T15:03:53;14.02;;;8.85;;
21804;SDS011;11064;47.102;15.452;2023-12-04T15:06:38;14.30;;;8.45;;
21804;SDS011;11064;47.102;15.452;2023-12-04T15:09:06;14.70;;;8.73;;
21804;SDS011;11064;47.102;15.452;2023-12-04T15:11:50;12.85;;;8.60;;
21804;SDS011;11064;47.102;15.452;2023-12-04T15:14:34;16.60;;;9.60;;
21804;SDS011;11064;47.102;15.452;2023-12-04T15:17:19;16.88;;;9.68;;
21804;SDS011;11064;47.102;15.452;2023-12-04T15:20:13;15.02;;;9.07;;
21804;SDS011;11064;47.102;15.452;2023-12-04T15:22:58;17.35;;;9.77;;
21804;SDS011;11064;47.102;15.452;2023-12-04T15:25:25;15.55;;;9.23;;
21804;SDS011;11064;47.102;15.452;2023-12-04T15:27:52;18.67;;;9.15;;
21804;SDS011;11064;47.102;15.452;2023-12-04T15:30:18;16.13;;;9.73;;
21804;SDS011;11064;47.102;15.452;2023-12-04T15:32:44;15.85;;;9.38;;
21804;SDS011;11064;47.102;15.452;2023-12-04T15:35:09;17.17;;;9.70;;
21804;SDS011;11064;47.102;15.452;2023-12-04T15:37:35;17.10;;;10.07;;
21804;SDS011;11064;47.102;15.452;2023-12-04T15:40:01;16.75;;;9.48;;
21804;SDS011;11064;47.102;15.452;2023-12-04T15:42:27;16.45;;;10.00;;
21804;SDS011;11064;47.102;15.452;2023-12-04T15:44:56;17.65;;;9.90;;
21804;SDS011;11064;47.102;15.452;2023-12-04T15:47:22;17.92;;;9.75;;
21804;SDS011;11064;47.102;15.452;2023-12-04T15:49:49;15.93;;;9.35;;
21804;SDS011;11064;47.102;15.452;2023-12-04T15:52:15;17.38;;;9.63;;
21804;SDS011;11064;47.102;15.452;2023-12-04T15:54:44;15.90;;;9.68;;
21804;SDS011;11064;47.102;15.452;2023-12-04T15:57:10;16.92;;;10.13;;
21804;SDS011;11064;47.102;15.452;2023-12-04T15:59:36;18.10;;;9.68;;
21804;SDS011;11064;47.102;15.452;2023-12-04T16:02:02;16.60;;;10.00;;
21804;SDS011;11064;47.102;15.452;2023-12-04T16:04:28;17.48;;;9.70;;
21804;SDS011;11064;47.102;15.452;2023-12-04T16:06:54;18.08;;;10.45;;
21804;SDS011;11064;47.102;15.452;2023-12-04T16:09:20;20.10;;;12.65;;
21804;SDS011;11064;47.102;15.452;2023-12-04T16:11:46;17.75;;;10.07;;
21804;SDS011;11064;47.102;15.452;2023-12-04T16:14:12;18.58;;;10.68;;
21804;SDS011;11064;47.102;15.452;2023-12-04T16:16:38;18.20;;;10.18;;
21804;SDS011;11064;47.102;15.452;2023-12-04T16:19:04;16.27;;;10.07;;
21804;SDS011;11064;47.102;15.452;2023-12-04T16:21:30;16.20;;;10.07;;
21804;SDS011;11064;47.102;15.452;2023-12-04T16:23:56;19.13;;;10.38;;
21804;SDS011;11064;47.102;15.452;2023-12-04T16:26:23;18.08;;;9.52;;
21804;SDS011;11064;47.102;15.452;2023-12-04T16:28:49;16.02;;;9.77;;
21804;SDS011;11064;47.102;15.452;2023-12-04T16:31:15;18.88;;;10.68;;
21804;SDS011;11064;47.102;15.452;2023-12-04T16:33:41;19.05;;;10.95;;
21804;SDS011;11064;47.102;15.452;2023-12-04T16:36:07;16.88;;;10.00;;
21804;SDS011;11064;47.102;15.452;2023-12-04T16:38:35;18.38;;;10.38;;
21804;SDS011;11064;47.102;15.452;2023-12-04T16:41:01;18.02;;;10.57;;
21804;SDS011;11064;47.102;15.452;2023-12-04T16:43:27;17.13;;;9.80;;
21804;SDS011;11064;47.102;15.452;2023-12-04T16:45:53;18.33;;;11.05;;
21804;SDS011;11064;47.102;15.452;2023-12-04T16:48:19;21.58;;;11.52;;
21804;SDS011;11064;47.102;15.452;2023-12-04T16:50:45;17.17;;;10.30;;
21804;SDS011;11064;47.102;15.452;2023-12-04T16:53:11;15.80;;;9.80;;
21804;SDS011;11064;47.102;15.452;2023-12-04T16:55:37;18.08;;;10.75;;
21804;SDS011;11064;47.102;15.452;2023-12-04T16:58:03;17.13;;;10.23;;
21804;SDS011;11064;47.102;15.452;2023-12-04T17:00:32;18.00;;;9.77;;
21804;SDS011;11064;47.102;15.452;2023-12-04T17:03:00;17.95;;;10.38;;
21804;SDS011;11064;47.102;15.452;2023-12-04T17:05:26;15.98;;;9.82;;
21804;SDS011;11064;47.102;15.452;2023-12-04T17:07:53;18.42;;;10.60;;
21804;SDS011;11064;47.102;15.452;2023-12-04T17:10:19;16.90;;;10.00;;
21804;SDS011;11064;47.102;15.452;2023-12-04T17:12:46;22.15;;;12.52;;
21804;SDS011;11064;47.102;15.452;2023-12-04T17:15:12;22.75;;;12.38;;
21804;SDS011;11064;47.102;15.452;2023-12-04T17:17:39;20.15;;;11.13;;
21804;SDS011;11064;47.102;15.452;2023-12-04T17:20:06;15.88;;;10.15;;
21804;SDS011;11064;47.102;15.452;2023-12-04T17:22:33;16.63;;;10.10;;
21804;SDS011;11064;47.102;15.452;2023-12-04T17:25:02;17.10;;;10.32;;
21804;SDS011;11064;47.102;15.452;2023-12-04T17:27:29;20.83;;;10.43;;
21804;SDS011;11064;47.102;15.452;2023-12-04T17:29:55;19.52;;;11.80;;
21804;SDS011;11064;47.102;15.452;2023-12-04T17:32:21;17.52;;;10.63;;
21804;SDS011;11064;47.102;15.452;2023-12-04T17:34:47;17.33;;;10.18;;
21804;SDS011;11064;47.102;15.452;2023-12-04T17:37:13;18.02;;;10.15;;
21804;SDS011;11064;47.102;15.452;2023-12-04T17:39:38;17.77;;;10.23;;
21804;SDS011;11064;47.102;15.452;2023-12-04T17:42:06;19.92;;;11.65;;
21804;SDS011;11064;47.102;15.452;2023-12-04T17:44:33;17.73;;;10.35;;
21804;SDS011;11064;47.102;15.452;2023-12-04T17:46:59;18.35;;;10.70;;
21804;SDS011;11064;47.102;15.452;2023-12-04T17:49:24;19.83;;;10.82;;
21804;SDS011;11064;47.102;15.452;2023-12-04T17:51:50;17.90;;;10.18;;
21804;SDS011;11064;47.102;15.452;2023-12-04T17:54:16;20.08;;;11.65;;
21804;SDS011;11064;47.102;15.452;2023-12-04T17:56:43;17.80;;;9.82;;
21804;SDS011;11064;47.102;15.452;2023-12-04T17:59:08;29.42;;;16.00;;
21804;SDS011;11064;47.102;15.452;2023-12-04T18:01:34;17.48;;;10.93;;
21804;SDS011;11064;47.102;15.452;2023-12-04T18:04:00;20.05;;;11.27;;
21804;SDS011;11064;47.102;15.452;2023-12-04T18:06:28;18.27;;;10.75;;
21804;SDS011;11064;47.102;15.452;2023-12-04T18:08:55;17.83;;;10.07;;
21804;SDS011;11064;47.102;15.452;2023-12-04T18:11:21;18.77;;;10.43;;
21804;SDS011;11064;47.102;15.452;2023-12-04T18:13:47;18.48;;;11.60;;
21804;SDS011;11064;47.102;15.452;2023-12-04T18:16:14;18.77;;;11.02;;
21804;SDS011;11064;47.102;15.452;2023-12-04T18:18:41;17.60;;;10.52;;
21804;SDS011;11064;47.102;15.452;2023-12-04T18:21:07;17.17;;;10.55;;
21804;SDS011;11064;47.102;15.452;2023-12-04T18:23:33;18.27;;;10.85;;
21804;SDS011;11064;47.102;15.452;2023-12-04T18:25:58;23.40;;;14.35;;
21804;SDS011;11064;47.102;15.452;2023-12-04T18:28:25;19.90;;;12.30;;
21804;SDS011;11064;47.102;15.452;2023-12-04T18:30:52;20.38;;;11.73;;
21804;SDS011;11064;47.102;15.452;2023-12-04T18:33:18;20.52;;;11.15;;
21804;SDS011;11064;47.102;15.452;2023-12-04T18:35:44;20.33;;;11.45;;
21804;SDS011;11064;47.102;15.452;2023-12-04T18:40:43;18.75;;;10.80;;
21804;SDS011;11064;47.102;15.452;2023-12-04T18:43:09;19.33;;;10.95;;
21804;SDS011;11064;47.102;15.452;2023-12-04T18:45:36;18.45;;;10.88;;
21804;SDS011;11064;47.102;15.452;2023-12-04T18:48:05;18.17;;;11.57;;
21804;SDS011;11064;47.102;15.452;2023-12-04T18:50:34;21.85;;;11.95;;
21804;SDS011;11064;47.102;15.452;2023-12-04T18:53:02;19.33;;;10.82;;
21804;SDS011;11064;47.102;15.452;2023-12-04T18:55:28;17.70;;;10.65;;
21804;SDS011;11064;47.102;15.452;2023-12-04T18:57:54;19.10;;;10.50;;
21804;SDS011;11064;47.102;15.452;2023-12-04T19:00:20;19.75;;;11.15;;
21804;SDS011;11064;47.102;15.452;2023-12-04T19:02:52;19.98;;;10.90;;
21804;SDS011;11064;47.102;15.452;2023-12-04T19:05:19;18.05;;;10.30;;
21804;SDS011;11064;47.102;15.452;2023-12-04T19:07:46;20.90;;;11.18;;
21804;SDS011;11064;47.102;15.452;2023-12-04T19:10:12;22.50;;;11.27;;
21804;SDS011;11064;47.102;15.452;2023-12-04T19:12:40;20.17;;;10.70;;
21804;SDS011;11064;47.102;15.452;2023-12-04T19:15:06;19.90;;;11.13;;
21804;SDS011;11064;47.102;15.452;2023-12-04T19:17:35;17.73;;;9.98;;
21804;SDS011;11064;47.102;15.452;2023-12-04T19:20:01;20.98;;;10.80;;
21804;SDS011;11064;47.102;15.452;2023-12-04T19:22:27;18.02;;;10.55;;
21804;SDS011;11064;47.102;15.452;2023-12-04T19:24:54;22.88;;;11.40;;
21804;SDS011;11064;47.102;15.452;2023-12-04T19:27:20;19.48;;;10.68;;
21804;SDS011;11064;47.102;15.452;2023-12-04T19:29:46;19.50;;;11.25;;
21804;SDS011;11064;47.102;15.452;2023-12-04T19:32:12;20.92;;;11.60;;